Apex, North Carolina
Current Conditions -  °F | °C
As of 1:51 AM on Wednesday 28 Jan 2015 (Local Time) from KRDU Reporting Station
Few Clouds Few Clouds  
Wind Chill: 22°   Ceiling: Unl
Heat Index: 28°   Visibility: 10mi
Dew Point: 11°   Wind: 6mph
Humidity: 49%   Direction: 330°NNW
Pressure: 30.04"   Gusts: NA
Location:  35.73°N, 78.84°W
Report Text: KRDU 280651Z 33005KT 10SM FEW060 M02/M12 A3004 RMK AO2 SLP174 T10221117
Loading
Personal Weather Stations






























Interactive Weather Map New forecast layout! Learn more

10-Day Weather Forecast

Advertisements
Track Severe Weather on mobile